Time;durP1;ratioP1;P1;durP2;ratioP2;P2;SDS_P1;SDS_P2;PMS_P1;PMS_P2;Temp;Humidity;BMP_temperature;BMP_pressure;BME280_temperature;BME280_humidity;BME280_pressure;Samples;Min_cycle;Max_cycle;Signal;HPM_P1;HPM_P2
2023/10/23 00:00:44;;;;;;;4.87;1.47;;;;;;;9.61;62.62;101018.44;4998273;28;97169;-77
2023/10/23 00:03:09;;;;;;;1.90;1.20;;;;;;;9.63;62.86;101029.00;4997017;28;97136;-77
2023/10/23 00:05:34;;;;;;;1.90;1.23;;;;;;;9.66;62.66;101042.59;4998766;28;97320;-77
2023/10/23 00:08:00;;;;;;;7.80;1.40;;;;;;;9.68;62.80;101028.25;4998033;28;100283;-77
2023/10/23 00:10:25;;;;;;;1.87;1.50;;;;;;;9.71;62.90;101032.78;4998509;28;98080;-76
2023/10/23 00:12:50;;;;;;;1.50;1.40;;;;;;;9.72;62.90;101024.00;4996818;28;96825;-76
2023/10/23 00:15:16;;;;;;;5.90;1.57;;;;;;;9.71;62.96;101022.50;4996433;28;97718;-76
2023/10/23 00:17:41;;;;;;;5.70;1.40;;;;;;;9.72;63.00;101037.81;4997029;28;98057;-76
2023/10/23 00:20:08;;;;;;;2.17;1.70;;;;;;;9.72;63.05;101018.47;4995271;28;102582;-78
2023/10/23 00:22:33;;;;;;;1.70;1.60;;;;;;;9.76;63.01;101034.78;4998862;28;101260;-77
2023/10/23 00:24:58;;;;;;;2.27;2.17;;;;;;;9.76;63.02;101041.06;4996974;28;102424;-76
2023/10/23 00:27:24;;;;;;;9.73;2.00;;;;;;;9.77;62.87;101044.59;4998012;28;97085;-76
2023/10/23 00:29:49;;;;;;;3.27;2.40;;;;;;;9.74;63.10;101031.78;4998341;28;101681;-76
2023/10/23 00:32:14;;;;;;;6.13;2.90;;;;;;;9.74;63.08;101026.25;5000014;28;97150;-76
2023/10/23 00:34:40;;;;;;;6.90;3.77;;;;;;;9.71;63.17;101030.78;4995556;28;97678;-76
2023/10/23 00:37:05;;;;;;;3.83;2.80;;;;;;;9.76;63.23;101030.03;4995800;28;100512;-77
2023/10/23 00:39:30;;;;;;;9.50;3.63;;;;;;;9.75;63.10;101045.09;4995207;28;98695;-76
2023/10/23 00:41:56;;;;;;;6.50;3.17;;;;;;;9.75;63.27;101034.06;4997416;28;97136;-76
2023/10/23 00:44:21;;;;;;;8.80;3.33;;;;;;;9.72;63.22;101040.56;4998756;28;97413;-77
2023/10/23 00:46:47;;;;;;;4.53;3.30;;;;;;;9.74;63.21;101057.41;4997073;28;104011;-76
2023/10/23 00:49:13;;;;;;;5.30;2.90;;;;;;;9.72;63.17;101037.03;4993940;28;99392;-76
2023/10/23 00:51:38;;;;;;;7.60;3.60;;;;;;;9.71;63.20;101044.59;4999135;28;97470;-77
2023/10/23 00:54:05;;;;;;;3.80;3.40;;;;;;;9.70;63.22;101048.59;5000468;28;97337;-77
2023/10/23 00:56:32;;;;;;;3.00;2.60;;;;;;;9.65;63.22;101045.84;4996425;28;98740;-77
2023/10/23 00:58:58;;;;;;;7.97;2.80;;;;;;;9.66;63.29;101050.09;4995067;28;98282;-76
2023/10/23 01:01:24;;;;;;;6.13;3.30;;;;;;;9.63;63.24;101057.38;4998227;28;96813;-77
2023/10/23 01:03:49;;;;;;;6.23;2.80;;;;;;;9.68;63.43;101042.84;4997196;28;96836;-76
2023/10/23 01:06:14;;;;;;;4.23;3.13;;;;;;;9.69;63.37;101062.94;4992749;28;106758;-77
2023/10/23 01:08:40;;;;;;;2.90;2.70;;;;;;;9.70;63.40;101065.19;4997060;28;99234;-76
2023/10/23 01:11:05;;;;;;;3.93;3.07;;;;;;;9.71;63.37;101055.66;4995524;28;97138;-76
2023/10/23 01:13:31;;;;;;;5.23;3.20;;;;;;;9.71;63.29;101052.91;4998954;28;97153;-76
2023/10/23 01:15:56;;;;;;;4.33;3.20;;;;;;;9.75;63.38;101061.69;5001317;28;100522;-77
2023/10/23 01:18:21;;;;;;;4.40;3.60;;;;;;;9.74;63.46;101051.13;4997976;28;99168;-76
2023/10/23 01:20:48;;;;;;;10.73;4.60;;;;;;;9.79;63.58;101067.72;4997150;28;96710;-76
2023/10/23 01:23:13;;;;;;;7.30;5.00;;;;;;;9.82;63.47;101063.19;4997604;28;97377;-76
2023/10/23 01:25:39;;;;;;;6.43;5.23;;;;;;;9.82;63.47;101049.38;4996832;28;99140;-77
2023/10/23 01:28:05;;;;;;;8.23;4.90;;;;;;;9.86;63.52;101053.41;4996034;28;99043;-76
2023/10/23 01:30:31;;;;;;;10.07;4.27;;;;;;;9.85;63.56;101057.41;4996409;28;97985;-77
2023/10/23 01:32:56;;;;;;;3.77;3.30;;;;;;;9.83;63.52;101045.34;4996500;28;97216;-76
2023/10/23 01:35:22;;;;;;;4.23;3.30;;;;;;;9.87;63.71;101067.97;4996860;28;97068;-76
2023/10/23 01:37:47;;;;;;;4.13;3.50;;;;;;;9.87;63.57;101065.97;4999920;28;97642;-76
2023/10/23 01:40:13;;;;;;;5.27;4.00;;;;;;;9.88;63.51;101061.94;5000182;28;96963;-76
2023/10/23 01:42:43;;;;;;;7.03;4.40;;;;;;;9.86;63.76;101053.41;4999663;28;96886;-76
2023/10/23 01:45:09;;;;;;;6.77;4.37;;;;;;;9.88;63.56;101056.41;5000263;28;97533;-76
2023/10/23 01:47:34;;;;;;;4.00;3.70;;;;;;;9.89;63.74;101057.16;4997721;28;97613;-76
2023/10/23 01:50:00;;;;;;;11.33;4.27;;;;;;;9.92;63.86;101062.44;4998922;28;96998;-76
2023/10/23 01:52:25;;;;;;;4.83;3.83;;;;;;;9.95;63.70;101066.22;5000769;28;98248;-76
2023/10/23 01:54:51;;;;;;;14.93;4.10;;;;;;;9.96;63.88;101062.94;5000744;28;100764;-77
2023/10/23 01:57:16;;;;;;;5.43;3.80;;;;;;;9.96;63.80;101060.19;5001425;28;97768;-77
2023/10/23 01:59:42;;;;;;;10.73;4.13;;;;;;;9.96;63.96;101064.94;5000195;28;96734;-76
2023/10/23 02:02:07;;;;;;;4.13;3.83;;;;;;;9.95;64.03;101066.97;4999522;28;97427;-77
2023/10/23 02:04:34;;;;;;;5.40;4.27;;;;;;;10.00;64.02;101082.81;5000712;28;97325;-77
2023/10/23 02:06:59;;;;;;;5.33;4.60;;;;;;;10.00;63.98;101073.75;4998983;28;99402;-76
2023/10/23 02:09:25;;;;;;;7.13;4.07;;;;;;;10.04;64.03;101077.03;4999146;28;97538;-77
2023/10/23 02:11:50;;;;;;;6.57;4.10;;;;;;;10.03;64.13;101086.56;5000116;28;96964;-76
2023/10/23 02:14:15;;;;;;;5.50;4.30;;;;;;;10.07;64.15;101097.38;4999301;28;97472;-77
2023/10/23 02:16:41;;;;;;;5.17;4.60;;;;;;;10.10;64.18;101079.78;4996240;28;99444;-76
2023/10/23 02:19:08;;;;;;;4.53;4.13;;;;;;;10.08;64.31;101099.66;4996060;28;97110;-76
2023/10/23 02:21:34;;;;;;;5.40;5.00;;;;;;;10.10;64.09;101083.31;5001829;28;97049;-76
2023/10/23 02:23:59;;;;;;;3.63;3.33;;;;;;;10.10;64.19;101091.59;5012871;27;99842;-76
2023/10/23 02:26:25;;;;;;;7.40;4.90;;;;;;;10.06;64.19;101080.06;5000198;28;97621;-77
2023/10/23 02:28:50;;;;;;;4.97;4.40;;;;;;;10.09;64.19;101076.25;5000549;28;96984;-77
2023/10/23 02:31:16;;;;;;;5.70;4.43;;;;;;;10.11;64.20;101097.91;4998207;28;97636;-76
2023/10/23 02:33:42;;;;;;;7.40;4.40;;;;;;;10.13;64.20;101095.38;5003069;28;99632;-76
2023/10/23 02:36:07;;;;;;;9.70;4.17;;;;;;;10.17;64.32;101104.19;5000267;28;110856;-77
2023/10/23 02:38:32;;;;;;;6.87;4.40;;;;;;;10.17;64.28;101104.94;5000271;28;97040;-77
2023/10/23 02:40:58;;;;;;;4.93;4.43;;;;;;;10.20;64.27;101105.91;4996935;28;97165;-76
2023/10/23 02:43:23;;;;;;;5.07;4.03;;;;;;;10.19;64.35;101104.44;4998622;28;97592;-77
2023/10/23 02:45:49;;;;;;;5.67;4.30;;;;;;;10.21;64.36;101118.50;4998474;28;97084;-77
2023/10/23 02:48:16;;;;;;;4.67;4.30;;;;;;;10.23;64.44;101110.47;4999585;28;99011;-77
2023/10/23 02:50:42;;;;;;;4.20;3.80;;;;;;;10.24;64.42;101117.50;4999484;28;96943;-77
2023/10/23 02:53:07;;;;;;;3.80;3.50;;;;;;;10.22;64.37;101112.47;4999180;28;96853;-77
2023/10/23 02:55:51;;;;;;;6.30;4.17;;;;;;;10.27;64.42;101110.97;5000114;28;99021;-77
2023/10/23 02:58:17;;;;;;;3.70;3.43;;;;;;;10.23;64.36;101144.41;4996369;28;97308;-76
2023/10/23 03:00:43;;;;;;;3.80;3.37;;;;;;;10.28;64.43;101112.47;5000205;28;97072;-77
2023/10/23 03:03:09;;;;;;;4.00;3.60;;;;;;;10.28;64.36;101107.69;5000455;28;97757;-77
2023/10/23 03:05:35;;;;;;;4.10;3.33;;;;;;;10.27;64.57;101119.25;4999050;28;97452;-76
2023/10/23 03:08:00;;;;;;;3.80;3.40;;;;;;;10.27;64.55;101117.25;4993448;28;97644;-76
2023/10/23 03:10:26;;;;;;;7.37;3.67;;;;;;;10.28;64.54;101129.06;4998237;28;97159;-77
2023/10/23 03:12:51;;;;;;;6.03;3.40;;;;;;;10.28;64.59;101112.47;4999877;28;99406;-76
2023/10/23 03:15:17;;;;;;;4.33;3.17;;;;;;;10.28;64.53;101110.44;4998407;28;100030;-77
2023/10/23 03:17:42;;;;;;;6.40;3.73;;;;;;;10.29;64.61;101113.97;4999597;28;96954;-76
2023/10/23 03:20:08;;;;;;;4.30;3.43;;;;;;;10.29;64.41;101109.19;5000021;28;97013;-77
2023/10/23 03:22:34;;;;;;;4.20;3.80;;;;;;;10.28;64.42;101120.78;4999839;28;97290;-77
2023/10/23 03:24:59;;;;;;;5.23;4.17;;;;;;;10.30;64.68;101118.25;4997226;28;99629;-76
2023/10/23 03:27:25;;;;;;;8.00;3.93;;;;;;;10.27;64.63;101138.59;4998580;28;98156;-76
2023/10/23 03:29:50;;;;;;;3.67;3.37;;;;;;;10.24;64.53;101134.84;4998166;28;96925;-77
2023/10/23 03:32:15;;;;;;;4.50;3.77;;;;;;;10.26;64.66;101120.53;4996531;28;97449;-76
2023/10/23 03:34:41;;;;;;;5.57;4.17;;;;;;;10.20;64.48;101128.03;5013453;27;99264;-77
2023/10/23 03:37:06;;;;;;;8.63;4.00;;;;;;;10.18;64.42;101127.78;4998392;28;105527;-77
2023/10/23 03:39:36;;;;;;;6.50;4.20;;;;;;;10.15;64.58;101137.84;4996854;28;97261;-76
2023/10/23 03:42:02;;;;;;;4.00;3.63;;;;;;;10.13;64.55;101139.63;4999644;28;97352;-77
2023/10/23 03:44:27;;;;;;;4.30;3.83;;;;;;;10.15;64.89;101145.41;4997725;28;98408;-76
2023/10/23 03:46:53;;;;;;;5.80;3.63;;;;;;;10.13;64.55;101156.94;5001407;28;97198;-77
2023/10/23 03:49:19;;;;;;;4.67;4.17;;;;;;;10.10;64.53;101144.13;4997936;28;97295;-77
2023/10/23 03:51:44;;;;;;;4.90;4.20;;;;;;;10.09;64.52;101144.63;4989025;28;100564;-76
2023/10/23 03:54:11;;;;;;;5.40;4.33;;;;;;;10.05;64.66;101158.69;4999137;28;97938;-76
2023/10/23 03:56:36;;;;;;;4.93;4.00;;;;;;;10.04;64.56;101144.13;4998001;28;97128;-76
2023/10/23 03:59:02;;;;;;;6.20;5.13;;;;;;;10.05;64.77;101144.88;4994285;28;97328;-76
2023/10/23 04:01:28;;;;;;;6.67;5.07;;;;;;;10.06;64.46;101159.47;4998431;28;100280;-76
2023/10/23 04:03:54;;;;;;;5.73;5.20;;;;;;;10.03;64.63;101148.16;4996248;28;97576;-77
2023/10/23 04:06:19;;;;;;;5.63;4.90;;;;;;;10.02;64.57;101160.44;4991878;28;98394;-76
2023/10/23 04:08:45;;;;;;;6.27;4.53;;;;;;;9.98;64.58;101139.84;4994998;28;97529;-77
2023/10/23 04:11:14;;;;;;;5.00;4.60;;;;;;;10.01;64.60;101149.91;4995861;28;97708;-76
2023/10/23 04:13:39;;;;;;;5.17;4.50;;;;;;;9.97;64.86;101146.63;5011494;27;99299;-76
2023/10/23 04:16:05;;;;;;;9.90;4.77;;;;;;;9.92;64.53;101148.13;4998629;28;97400;-77
2023/10/23 04:18:31;;;;;;;4.70;4.30;;;;;;;9.92;64.72;101152.91;4999097;28;97723;-77
2023/10/23 04:21:07;;;;;;;6.03;4.47;;;;;;;9.92;64.78;101152.91;5001605;28;97952;-77
2023/10/23 04:23:34;;;;;;;5.50;4.50;;;;;;;9.86;64.50;101144.59;5000753;28;97151;-76
2023/10/23 04:25:59;;;;;;;4.20;3.83;;;;;;;9.83;64.88;101145.59;5001808;28;97477;-77
2023/10/23 04:28:25;;;;;;;5.00;4.50;;;;;;;9.82;64.78;101135.06;5001248;28;97328;-74
2023/10/23 04:30:51;;;;;;;4.27;3.87;;;;;;;9.81;64.90;101159.16;5000720;28;98822;-77
2023/10/23 04:33:19;;;;;;;7.23;4.60;;;;;;;9.83;64.94;101150.38;4998974;28;97234;-76
2023/10/23 04:35:45;;;;;;;6.00;4.33;;;;;;;9.81;65.04;101141.81;5000375;28;97324;-76
2023/10/23 04:38:10;;;;;;;6.40;4.07;;;;;;;9.86;64.94;101150.13;5000681;28;97584;-76
2023/10/23 04:40:54;;;;;;;4.20;3.40;;;;;;;9.83;65.04;101159.41;5000202;28;97329;-73
2023/10/23 04:43:20;;;;;;;7.00;4.40;;;;;;;9.88;64.89;101147.63;4997167;28;97182;-77
2023/10/23 04:45:46;;;;;;;5.67;4.27;;;;;;;9.90;64.82;101158.94;4998625;28;97058;-77
2023/10/23 04:48:11;;;;;;;4.10;3.80;;;;;;;9.85;64.80;101154.13;4999025;28;97355;-77
2023/10/23 04:50:38;;;;;;;3.63;3.33;;;;;;;9.86;64.81;101163.94;5000501;28;97001;-76
2023/10/23 04:53:04;;;;;;;7.20;4.20;;;;;;;9.86;64.89;101158.44;4997874;28;98613;-77
2023/10/23 04:55:40;;;;;;;4.90;4.00;;;;;;;9.90;65.02;101167.22;4997171;28;97055;-77
2023/10/23 04:58:09;;;;;;;4.07;3.70;;;;;;;9.91;64.77;101179.03;5015981;27;97038;-76
2023/10/23 05:00:36;;;;;;;4.67;3.53;;;;;;;9.91;64.90;101165.97;4998822;28;99544;-77
2023/10/23 05:03:01;;;;;;;4.10;3.67;;;;;;;9.90;64.63;101183.81;4999515;28;97177;-76
2023/10/23 05:05:27;;;;;;;4.93;4.37;;;;;;;9.87;64.94;101187.56;4996862;28;97230;-77
2023/10/23 05:07:52;;;;;;;5.37;4.30;;;;;;;9.87;64.88;101175.75;4998742;28;97279;-77
2023/10/23 05:10:17;;;;;;;4.50;3.97;;;;;;;9.84;65.08;101177.53;5001281;28;100459;-77
2023/10/23 05:12:43;;;;;;;4.53;4.13;;;;;;;9.86;64.93;101183.31;4998120;28;100110;-76
2023/10/23 05:15:08;;;;;;;5.63;5.07;;;;;;;9.88;65.20;101166.97;4997292;28;97296;-77
2023/10/23 05:17:34;;;;;;;5.63;4.33;;;;;;;9.93;65.12;101176.53;5001310;28;96973;-77
2023/10/23 05:20:01;;;;;;;7.20;4.53;;;;;;;9.93;65.11;101163.44;4998955;28;98908;-77
2023/10/23 05:22:26;;;;;;;5.60;4.60;;;;;;;9.95;65.09;101172.00;4998771;28;98170;-78
2023/10/23 05:24:52;;;;;;;6.77;5.17;;;;;;;9.96;65.12;101183.81;4996989;28;96828;-77
2023/10/23 05:27:17;;;;;;;11.30;6.40;;;;;;;10.00;65.08;101176.03;4997817;28;97323;-76
2023/10/23 05:29:43;;;;;;;9.00;6.30;;;;;;;10.00;65.24;101187.09;4999154;28;97963;-77
2023/10/23 05:32:08;;;;;;;6.73;6.10;;;;;;;10.01;65.40;101180.31;5001121;28;97660;-77
2023/10/23 05:34:34;;;;;;;9.43;6.27;;;;;;;10.01;65.24;101189.38;4996638;28;97253;-76
2023/10/23 05:37:02;;;;;;;7.43;6.07;;;;;;;10.01;65.31;101188.59;4998059;28;97223;-77
2023/10/23 05:39:28;;;;;;;9.43;7.30;;;;;;;10.07;65.27;101194.13;5013131;27;99297;-77
2023/10/23 05:41:54;;;;;;;13.83;6.93;;;;;;;10.10;65.34;101171.78;4998615;28;97408;-77
2023/10/23 05:44:19;;;;;;;8.13;7.10;;;;;;;10.12;65.26;101193.41;4999143;28;97116;-77
2023/10/23 05:46:45;;;;;;;12.17;7.60;;;;;;;10.15;65.46;101176.56;4997557;28;97282;-76
2023/10/23 05:49:10;;;;;;;9.03;6.60;;;;;;;10.15;65.38;101195.16;4998706;28;99571;-77
2023/10/23 05:51:36;;;;;;;8.83;6.60;;;;;;;10.16;65.38;101191.13;4999731;28;102534;-76
2023/10/23 05:54:02;;;;;;;10.83;7.10;;;;;;;10.20;65.52;101194.41;4998318;28;97060;-77
2023/10/23 05:56:28;;;;;;;15.57;8.80;;;;;;;10.20;65.53;101186.09;4998864;28;96784;-76
2023/10/23 05:58:53;;;;;;;13.20;9.40;;;;;;;10.19;65.63;101204.72;4999569;28;97789;-77
2023/10/23 06:01:19;;;;;;;16.23;11.70;;;;;;;10.26;65.63;101220.81;4997635;28;97852;-77
2023/10/23 06:03:44;;;;;;;15.70;10.70;;;;;;;10.31;65.63;101205.47;4999551;28;97076;-77
2023/10/23 06:06:12;;;;;;;12.90;9.60;;;;;;;10.32;65.49;101229.91;4996869;28;97444;-76
2023/10/23 06:08:38;;;;;;;9.87;8.87;;;;;;;10.33;65.46;101222.34;4997459;28;96703;-76
2023/10/23 06:11:08;;;;;;;11.03;8.23;;;;;;;10.35;65.72;101250.25;5012660;27;100194;-76
2023/10/23 06:13:33;;;;;;;13.27;8.77;;;;;;;10.35;65.72;101230.88;4996318;28;96817;-77
2023/10/23 06:16:02;;;;;;;14.90;10.30;;;;;;;10.37;65.63;101231.16;4997780;28;97622;-77
2023/10/23 06:18:27;;;;;;;13.40;9.03;;;;;;;10.41;65.64;101251.03;4997049;28;98956;-77
2023/10/23 06:21:03;;;;;;;11.83;8.33;;;;;;;10.42;65.65;101238.69;4998795;28;98369;-77
2023/10/23 06:23:32;;;;;;;9.90;8.07;;;;;;;10.41;65.63;101239.97;5004671;28;97874;-76
2023/10/23 06:25:59;;;;;;;11.40;8.47;;;;;;;10.42;65.70;101255.28;5001760;28;97149;-77
2023/10/23 06:28:26;;;;;;;11.60;9.07;;;;;;;10.44;65.77;101250.78;5000683;28;97878;-76
2023/10/23 06:30:51;;;;;;;10.43;7.97;;;;;;;10.46;65.87;101244.72;4999900;28;97616;-77
2023/10/23 06:33:17;;;;;;;11.50;9.27;;;;;;;10.48;65.87;101298.31;4999758;28;97279;-76
2023/10/23 06:35:42;;;;;;;11.57;8.70;;;;;;;10.48;65.78;101258.81;5001725;28;97219;-77
2023/10/23 06:38:08;;;;;;;10.20;8.20;;;;;;;10.51;65.72;101272.41;5001154;28;96867;-77
2023/10/23 06:40:33;;;;;;;13.13;9.00;;;;;;;10.52;65.83;101254.53;5001240;28;97073;-77
2023/10/23 06:42:59;;;;;;;10.60;8.90;;;;;;;10.55;66.00;101247.25;5000629;28;96983;-77
2023/10/23 06:45:24;;;;;;;14.00;11.47;;;;;;;10.56;65.92;101257.84;4998529;28;96944;-76
2023/10/23 06:47:50;;;;;;;15.63;11.20;;;;;;;10.59;65.86;101259.59;5001718;28;97061;-77
2023/10/23 06:50:16;;;;;;;20.40;12.53;;;;;;;10.58;65.97;101258.09;5006133;28;98980;-77
2023/10/23 06:52:42;;;;;;;17.40;12.90;;;;;;;10.65;65.92;101276.94;4999423;28;97120;-77
2023/10/23 06:55:08;;;;;;;17.07;12.03;;;;;;;10.68;66.04;101277.97;5016974;27;96996;-77
2023/10/23 06:57:33;;;;;;;15.87;12.77;;;;;;;10.66;65.89;101270.16;4996829;28;97390;-77
2023/10/23 06:59:59;;;;;;;17.13;13.07;;;;;;;10.69;66.07;101268.41;5001027;28;98186;-76
2023/10/23 07:02:24;;;;;;;15.27;11.90;;;;;;;10.73;66.02;101286.28;4998209;28;97405;-77
2023/10/23 07:04:50;;;;;;;20.73;13.53;;;;;;;10.77;65.92;101275.72;4999677;28;97130;-77
2023/10/23 07:07:15;;;;;;;16.17;12.40;;;;;;;10.81;65.96;101264.41;4999705;28;99163;-77
2023/10/23 07:09:41;;;;;;;13.53;11.30;;;;;;;10.83;65.98;101267.44;4997121;28;99563;-77
2023/10/23 07:12:06;;;;;;;16.63;12.23;;;;;;;10.84;66.03;101259.88;5015453;27;97138;-77
2023/10/23 07:14:32;;;;;;;17.70;13.20;;;;;;;10.87;65.92;101267.94;4998597;28;97087;-77
2023/10/23 07:16:57;;;;;;;18.27;12.70;;;;;;;10.92;65.93;101274.72;5000230;28;100109;-76
2023/10/23 07:19:22;;;;;;;16.13;13.07;;;;;;;10.95;65.82;101273.72;5001409;28;98186;-77
2023/10/23 07:21:48;;;;;;;17.30;12.77;;;;;;;10.95;65.79;101277.25;4998707;28;108954;-77
2023/10/23 07:24:13;;;;;;;18.10;12.70;;;;;;;10.99;65.92;101280.53;5000747;28;97610;-77
2023/10/23 07:26:38;;;;;;;15.83;12.63;;;;;;;10.99;65.96;101277.75;4999651;28;98897;-76
2023/10/23 07:29:04;;;;;;;16.10;12.70;;;;;;;11.02;65.69;101279.53;4999180;28;100301;-77
2023/10/23 07:31:29;;;;;;;15.23;12.37;;;;;;;11.04;65.74;101284.56;4998989;28;97217;-77
2023/10/23 07:33:54;;;;;;;18.10;11.77;;;;;;;11.09;65.77;101290.06;5013495;27;97455;-77
2023/10/23 07:36:20;;;;;;;13.53;11.00;;;;;;;11.09;65.79;101281.75;5000310;28;98098;-75
2023/10/23 07:38:45;;;;;;;16.70;12.17;;;;;;;11.12;65.66;101291.09;4997028;28;99891;-77
2023/10/23 07:41:12;;;;;;;16.83;12.07;;;;;;;11.10;65.80;101286.06;5000208;28;96935;-77
2023/10/23 07:43:38;;;;;;;13.77;11.47;;;;;;;11.15;65.74;101292.84;5000815;28;96968;-76
2023/10/23 07:46:11;;;;;;;15.97;11.87;;;;;;;11.19;65.62;101294.13;4995863;28;100426;-76
2023/10/23 07:48:37;;;;;;;15.77;11.10;;;;;;;11.19;65.68;101288.56;5000087;28;97180;-77
2023/10/23 07:51:03;;;;;;;18.97;12.67;;;;;;;11.20;65.56;101308.72;5001580;28;96880;-76
2023/10/23 07:53:32;;;;;;;14.00;10.50;;;;;;;11.28;65.65;101293.84;4998760;28;96957;-77
2023/10/23 07:55:58;;;;;;;14.30;11.33;;;;;;;11.24;65.66;101298.88;5016365;27;100315;-77
2023/10/23 07:58:24;;;;;;;14.00;11.10;;;;;;;11.24;65.70;101284.28;4999606;28;97471;-76
2023/10/23 08:00:53;;;;;;;13.13;10.40;;;;;;;11.23;65.78;101289.06;5000044;28;97677;-77
2023/10/23 08:03:18;;;;;;;15.80;12.10;;;;;;;11.24;65.52;101276.72;4997942;28;97309;-77
2023/10/23 08:05:44;;;;;;;12.80;11.00;;;;;;;11.19;65.40;101276.72;4998602;28;99743;-77
2023/10/23 08:08:09;;;;;;;15.77;11.27;;;;;;;11.17;65.65;101287.56;5003252;28;109945;-77
2023/10/23 08:10:34;;;;;;;13.77;11.00;;;;;;;11.17;65.55;101301.41;4999300;28;97447;-77
2023/10/23 08:13:00;;;;;;;15.90;11.30;;;;;;;11.16;65.66;101300.66;4999469;28;111383;-76
2023/10/23 08:15:25;;;;;;;12.90;10.80;;;;;;;11.18;65.63;101284.28;4997548;28;99484;-76
2023/10/23 08:17:50;;;;;;;14.53;11.50;;;;;;;11.20;65.67;101279.00;5017432;27;101080;-77
2023/10/23 08:20:17;;;;;;;14.57;10.70;;;;;;;11.19;65.64;101285.03;4999414;28;109128;-76
2023/10/23 08:22:42;;;;;;;14.47;9.97;;;;;;;11.21;65.72;101280.50;5000804;28;96932;-77
2023/10/23 08:25:08;;;;;;;14.03;11.13;;;;;;;11.22;65.61;101293.09;5000872;28;97286;-77
2023/10/23 08:27:33;;;;;;;12.10;10.33;;;;;;;11.30;65.65;101285.03;4996516;28;96860;-77
2023/10/23 08:29:59;;;;;;;15.27;11.17;;;;;;;11.31;65.58;101290.06;5000415;28;97241;-77
2023/10/23 08:32:24;;;;;;;16.80;11.27;;;;;;;11.37;65.62;101274.16;5001136;28;97350;-76
2023/10/23 08:34:53;;;;;;;15.20;10.23;;;;;;;11.43;65.46;101286.03;4999465;28;109719;-77
2023/10/23 08:37:19;;;;;;;15.60;11.30;;;;;;;11.46;65.67;101270.41;5003351;28;100707;-77
2023/10/23 08:39:44;;;;;;;20.53;10.20;;;;;;;11.51;65.68;101270.38;5000269;28;97121;-77
2023/10/23 08:42:10;;;;;;;17.97;11.20;;;;;;;11.55;65.75;101286.72;5000693;28;97023;-76
2023/10/23 08:44:35;;;;;;;13.97;10.57;;;;;;;11.59;65.58;101290.03;4997670;28;98965;-76
2023/10/23 08:47:02;;;;;;;14.27;10.37;;;;;;;11.60;65.58;101276.88;4997799;28;98908;-76
2023/10/23 08:49:28;;;;;;;13.10;10.97;;;;;;;11.60;65.54;101265.81;4999142;28;96708;-76
2023/10/23 08:51:57;;;;;;;14.47;11.40;;;;;;;11.61;65.36;101276.41;4997739;28;97616;-76
2023/10/23 08:54:23;;;;;;;19.87;11.20;;;;;;;11.63;65.53;101282.19;4997615;28;99490;-76
2023/10/23 08:56:58;;;;;;;15.07;10.70;;;;;;;11.70;65.53;101280.91;4995167;28;101804;-76
2023/10/23 08:59:24;;;;;;;13.23;9.67;;;;;;;11.72;65.49;101289.47;4999637;28;98288;-77
2023/10/23 09:01:50;;;;;;;14.90;10.80;;;;;;;11.74;65.53;101284.94;5001357;27;97221;-77
2023/10/23 09:04:15;;;;;;;13.30;10.77;;;;;;;11.78;65.52;101270.78;4999915;28;97389;-77
2023/10/23 09:06:42;;;;;;;14.37;10.20;;;;;;;11.87;65.44;101289.91;4995813;28;102551;-74
2023/10/23 09:09:07;;;;;;;13.00;9.40;;;;;;;11.88;65.36;101281.09;4999510;28;97131;-77
2023/10/23 09:11:46;;;;;;;13.10;10.00;;;;;;;11.95;65.24;101286.13;4999452;28;97123;-77
2023/10/23 09:14:25;;;;;;;12.90;9.70;;;;;;;12.01;65.29;101283.31;4998666;28;96938;-77
2023/10/23 09:16:52;;;;;;;11.97;8.50;;;;;;;12.06;65.10;101282.53;4999088;28;97844;-77
2023/10/23 09:19:33;;;;;;;10.27;8.90;;;;;;;12.21;65.22;101286.50;4999291;28;96857;-77
2023/10/23 09:21:59;;;;;;;14.17;10.20;;;;;;;12.31;65.17;101283.44;5001242;28;96757;-77
2023/10/23 09:24:25;;;;;;;14.00;9.93;;;;;;;12.39;65.07;101281.63;5000429;28;97816;-77
2023/10/23 09:26:50;;;;;;;14.57;11.00;;;;;;;12.46;65.01;101292.94;4997250;28;97053;-77
2023/10/23 09:29:24;;;;;;;13.93;10.50;;;;;;;12.51;64.68;101285.84;4997088;28;97090;-77
2023/10/23 09:31:50;;;;;;;11.90;9.70;;;;;;;12.57;64.90;101270.66;4998322;28;96812;-77
2023/10/23 09:34:18;;;;;;;10.20;9.07;;;;;;;12.71;64.84;101277.09;5000455;28;97865;-77
2023/10/23 09:36:45;;;;;;;11.77;9.07;;;;;;;12.78;64.82;101277.31;4998736;28;97749;-77
2023/10/23 09:39:11;;;;;;;10.20;8.20;;;;;;;12.83;64.59;101284.09;4998847;28;97330;-77
2023/10/23 09:41:37;;;;;;;8.77;7.87;;;;;;;12.90;64.72;101292.59;4999634;28;96820;-77
2023/10/23 09:44:04;;;;;;;10.27;9.00;;;;;;;13.03;64.72;101277.38;4998508;28;98892;-78
2023/10/23 09:46:29;;;;;;;9.40;8.07;;;;;;;13.11;64.56;101281.84;4997549;28;97474;-76
2023/10/23 09:49:03;;;;;;;10.53;9.20;;;;;;;13.18;64.52;101281.28;4998725;28;97281;-77
2023/10/23 09:51:38;;;;;;;9.20;8.20;;;;;;;13.28;64.15;101276.13;4998181;28;97359;-77
2023/10/23 09:54:17;;;;;;;10.67;7.97;;;;;;;13.31;63.81;101280.66;4998333;28;98732;-77
2023/10/23 09:56:51;;;;;;;6.67;6.07;;;;;;;13.39;63.92;101271.22;4998664;28;100187;-77
2023/10/23 09:59:18;;;;;;;8.60;5.83;;;;;;;13.45;63.80;101279.53;5003483;28;97159;-76
2023/10/23 10:01:48;;;;;;;7.70;6.00;;;;;;;13.55;63.45;101286.22;5000129;28;97138;-77
2023/10/23 10:04:21;;;;;;;6.50;5.80;;;;;;;13.61;63.21;101278.56;5001151;28;99195;-77
2023/10/23 10:06:52;;;;;;;7.07;4.73;;;;;;;13.65;63.42;101260.31;5002257;28;98910;-77
2023/10/23 10:09:17;;;;;;;7.77;5.83;;;;;;;13.69;63.44;101276.69;5003096;28;97120;-77
2023/10/23 10:11:43;;;;;;;5.60;4.80;;;;;;;13.77;63.49;101265.75;5017709;27;97213;-77
2023/10/23 10:14:11;;;;;;;6.97;5.50;;;;;;;13.84;63.04;101263.16;4999349;28;97803;-77
2023/10/23 10:16:38;;;;;;;8.07;5.80;;;;;;;13.87;62.94;101267.66;5000564;28;96827;-77
2023/10/23 10:19:04;;;;;;;6.20;5.37;;;;;;;13.93;62.72;101256.47;5001741;28;97498;-77
2023/10/23 10:21:37;;;;;;;5.07;4.53;;;;;;;13.97;62.60;101265.25;5003360;28;100784;-77
2023/10/23 10:24:03;;;;;;;5.20;4.70;;;;;;;14.01;62.67;101260.16;5001901;28;98609;-77
2023/10/23 10:26:30;;;;;;;8.20;5.20;;;;;;;14.00;62.42;101253.06;5001536;28;98357;-77
2023/10/23 10:28:59;;;;;;;5.60;4.30;;;;;;;14.06;62.50;101254.53;4999211;28;96783;-77
2023/10/23 10:31:25;;;;;;;6.03;4.53;;;;;;;14.11;62.49;101248.13;5017293;27;96665;-77
2023/10/23 10:33:54;;;;;;;4.80;4.40;;;;;;;14.13;62.67;101265.06;5003131;28;100203;-77
2023/10/23 10:36:25;;;;;;;5.10;4.60;;;;;;;14.17;62.30;101240.47;5002771;28;96765;-76
2023/10/23 10:38:51;;;;;;;4.53;4.13;;;;;;;14.23;62.23;101243.19;5000237;28;97144;-77
2023/10/23 10:41:18;;;;;;;6.80;4.00;;;;;;;14.29;62.12;101229.91;5001412;28;97197;-77
2023/10/23 10:43:50;;;;;;;3.87;3.57;;;;;;;14.34;61.97;101234.66;4998656;28;98359;-77
2023/10/23 10:46:21;;;;;;;4.93;4.23;;;;;;;14.31;61.75;101232.94;5000049;28;97208;-77
2023/10/23 10:48:51;;;;;;;4.23;3.60;;;;;;;14.36;61.62;101224.50;5000098;28;97576;-77
2023/10/23 10:51:20;;;;;;;6.80;3.80;;;;;;;14.38;61.86;101255.34;4999815;28;97888;-77
2023/10/23 10:53:46;;;;;;;5.57;4.80;;;;;;;14.45;61.88;101226.16;4998794;28;99227;-77
2023/10/23 10:56:12;;;;;;;4.63;4.23;;;;;;;14.57;61.38;101223.91;5001256;28;99489;-76
2023/10/23 10:58:42;;;;;;;5.63;5.13;;;;;;;14.46;61.02;101242.31;5016168;27;97252;-77
2023/10/23 11:01:08;;;;;;;5.17;3.80;;;;;;;14.45;60.67;101240.06;5001166;28;99895;-77
2023/10/23 11:03:34;;;;;;;9.13;4.60;;;;;;;14.44;61.19;101225.38;5000352;28;98470;-76
2023/10/23 11:06:00;;;;;;;6.00;4.50;;;;;;;14.44;61.37;101222.59;5000237;28;99127;-78
2023/10/23 11:08:26;;;;;;;5.70;4.10;;;;;;;14.56;61.17;101216.88;5015232;27;97038;-77
2023/10/23 11:10:52;;;;;;;4.20;3.80;;;;;;;14.57;61.31;101224.69;5000014;28;97547;-77
2023/10/23 11:13:17;;;;;;;5.00;4.50;;;;;;;14.70;60.99;101205.22;4999327;28;99486;-78
2023/10/23 11:15:42;;;;;;;3.43;3.23;;;;;;;14.89;60.66;101217.03;4999711;28;96776;-77
2023/10/23 11:18:08;;;;;;;4.50;3.43;;;;;;;15.12;60.77;101214.66;5001615;28;97108;-77